sensor_id;sensor_type;location;lat;lon;timestamp;pressure;altitude;pressure_sealevel;temperature;humidity
22743;BME280;11538;48.884;8.696;2023-07-24T00:00:29;98032.41;;;18.88;100.00
22743;BME280;11538;48.884;8.696;2023-07-24T00:02:56;98028.88;;;18.88;100.00
22743;BME280;11538;48.884;8.696;2023-07-24T00:05:23;98030.41;;;18.85;100.00
22743;BME280;11538;48.884;8.696;2023-07-24T00:07:50;98021.78;;;18.87;100.00
22743;BME280;11538;48.884;8.696;2023-07-24T00:10:17;98019.50;;;18.92;100.00
22743;BME280;11538;48.884;8.696;2023-07-24T00:12:44;98021.19;;;19.00;100.00
22743;BME280;11538;48.884;8.696;2023-07-24T00:15:11;98011.00;;;19.01;100.00
22743;BME280;11538;48.884;8.696;2023-07-24T00:17:38;98015.34;;;19.06;100.00
22743;BME280;11538;48.884;8.696;2023-07-24T00:20:06;98004.84;;;19.15;100.00
22743;BME280;11538;48.884;8.696;2023-07-24T00:22:33;97999.41;;;19.19;100.00
22743;BME280;11538;48.884;8.696;2023-07-24T00:25:00;98001.75;;;19.17;100.00
22743;BME280;11538;48.884;8.696;2023-07-24T00:27:26;98006.00;;;19.10;100.00
22743;BME280;11538;48.884;8.696;2023-07-24T00:29:54;97995.34;;;19.09;100.00
22743;BME280;11538;48.884;8.696;2023-07-24T00:32:21;98003.16;;;19.03;100.00
22743;BME280;11538;48.884;8.696;2023-07-24T00:34:47;97997.56;;;18.96;100.00
22743;BME280;11538;48.884;8.696;2023-07-24T00:37:14;98002.22;;;18.92;100.00
22743;BME280;11538;48.884;8.696;2023-07-24T00:39:41;98001.47;;;18.95;100.00
22743;BME280;11538;48.884;8.696;2023-07-24T00:42:08;97998.41;;;19.00;100.00
22743;BME280;11538;48.884;8.696;2023-07-24T00:44:35;98000.41;;;19.03;100.00
22743;BME280;11538;48.884;8.696;2023-07-24T00:47:04;97995.69;;;19.04;100.00
22743;BME280;11538;48.884;8.696;2023-07-24T00:49:31;97989.38;;;18.99;100.00
22743;BME280;11538;48.884;8.696;2023-07-24T00:51:58;97986.50;;;18.89;100.00
22743;BME280;11538;48.884;8.696;2023-07-24T00:54:27;97988.78;;;18.83;100.00
22743;BME280;11538;48.884;8.696;2023-07-24T00:56:57;97978.91;;;18.78;100.00
22743;BME280;11538;48.884;8.696;2023-07-24T00:59:24;97979.78;;;18.86;100.00
22743;BME280;11538;48.884;8.696;2023-07-24T01:01:51;97973.91;;;18.88;100.00
22743;BME280;11538;48.884;8.696;2023-07-24T01:04:19;97971.53;;;18.86;100.00
22743;BME280;11538;48.884;8.696;2023-07-24T01:06:46;97971.19;;;18.88;100.00
22743;BME280;11538;48.884;8.696;2023-07-24T01:09:13;97960.53;;;18.82;100.00
22743;BME280;11538;48.884;8.696;2023-07-24T01:11:50;97957.78;;;18.82;100.00
22743;BME280;11538;48.884;8.696;2023-07-24T01:14:22;97951.53;;;18.85;100.00
22743;BME280;11538;48.884;8.696;2023-07-24T01:16:50;97947.22;;;18.88;100.00
22743;BME280;11538;48.884;8.696;2023-07-24T01:19:58;97951.44;;;18.78;100.00
22743;BME280;11538;48.884;8.696;2023-07-24T01:22:32;97952.53;;;18.70;100.00
22743;BME280;11538;48.884;8.696;2023-07-24T01:27:45;97945.38;;;18.62;100.00
22743;BME280;11538;48.884;8.696;2023-07-24T01:30:32;97941.47;;;18.63;100.00
22743;BME280;11538;48.884;8.696;2023-07-24T01:32:59;97946.06;;;18.55;100.00
22743;BME280;11538;48.884;8.696;2023-07-24T01:35:27;97945.72;;;18.60;100.00
22743;BME280;11538;48.884;8.696;2023-07-24T01:37:56;97940.63;;;18.59;100.00
22743;BME280;11538;48.884;8.696;2023-07-24T01:40:23;97953.50;;;18.54;100.00
22743;BME280;11538;48.884;8.696;2023-07-24T01:42:50;97944.56;;;18.61;100.00
22743;BME280;11538;48.884;8.696;2023-07-24T01:45:17;97941.41;;;18.59;100.00
22743;BME280;11538;48.884;8.696;2023-07-24T01:47:44;97947.78;;;18.67;100.00
22743;BME280;11538;48.884;8.696;2023-07-24T01:50:11;97947.78;;;18.67;100.00
22743;BME280;11538;48.884;8.696;2023-07-24T01:52:38;97944.56;;;18.61;100.00
22743;BME280;11538;48.884;8.696;2023-07-24T01:55:05;97946.13;;;18.59;100.00
22743;BME280;11538;48.884;8.696;2023-07-24T01:57:33;97943.41;;;18.62;100.00
22743;BME280;11538;48.884;8.696;2023-07-24T01:59:59;97943.81;;;18.64;100.00
22743;BME280;11538;48.884;8.696;2023-07-24T02:02:26;97943.03;;;18.64;100.00
22743;BME280;11538;48.884;8.696;2023-07-24T02:04:53;97945.25;;;18.54;100.00
22743;BME280;11538;48.884;8.696;2023-07-24T02:07:20;97943.97;;;18.45;100.00
22743;BME280;11538;48.884;8.696;2023-07-24T02:09:47;97942.34;;;18.40;100.00
22743;BME280;11538;48.884;8.696;2023-07-24T02:12:14;97935.34;;;18.42;100.00
22743;BME280;11538;48.884;8.696;2023-07-24T02:14:43;97933.41;;;18.47;100.00
22743;BME280;11538;48.884;8.696;2023-07-24T02:17:10;97926.34;;;18.46;100.00
22743;BME280;11538;48.884;8.696;2023-07-24T02:19:37;97931.75;;;18.38;100.00
22743;BME280;11538;48.884;8.696;2023-07-24T02:22:03;97930.63;;;18.43;100.00
22743;BME280;11538;48.884;8.696;2023-07-24T02:24:31;97912.94;;;18.40;100.00
22743;BME280;11538;48.884;8.696;2023-07-24T02:26:57;97911.69;;;18.34;100.00
22743;BME280;11538;48.884;8.696;2023-07-24T02:29:24;97915.22;;;18.35;100.00
22743;BME280;11538;48.884;8.696;2023-07-24T02:31:53;97913.31;;;18.39;100.00
22743;BME280;11538;48.884;8.696;2023-07-24T02:34:21;97913.22;;;18.32;100.00
22743;BME280;11538;48.884;8.696;2023-07-24T02:36:53;97895.50;;;18.25;100.00
22743;BME280;11538;48.884;8.696;2023-07-24T02:39:20;97905.63;;;18.21;100.00
22743;BME280;11538;48.884;8.696;2023-07-24T02:41:48;97907.97;;;18.19;100.00
22743;BME280;11538;48.884;8.696;2023-07-24T02:44:15;97912.78;;;18.26;100.00
22743;BME280;11538;48.884;8.696;2023-07-24T02:46:42;97901.88;;;18.33;100.00
22743;BME280;11538;48.884;8.696;2023-07-24T02:49:09;97897.91;;;18.31;100.00
22743;BME280;11538;48.884;8.696;2023-07-24T02:51:36;97893.25;;;18.35;100.00
22743;BME280;11538;48.884;8.696;2023-07-24T02:54:02;97882.28;;;18.35;100.00
22743;BME280;11538;48.884;8.696;2023-07-24T02:56:29;97878.25;;;18.25;100.00
22743;BME280;11538;48.884;8.696;2023-07-24T02:58:57;97889.25;;;18.29;100.00
22743;BME280;11538;48.884;8.696;2023-07-24T03:01:25;97883.78;;;18.29;100.00
22743;BME280;11538;48.884;8.696;2023-07-24T03:03:52;97893.56;;;18.26;100.00
22743;BME280;11538;48.884;8.696;2023-07-24T03:06:19;97891.22;;;18.28;100.00
22743;BME280;11538;48.884;8.696;2023-07-24T03:08:46;97874.00;;;18.31;100.00
22743;BME280;11538;48.884;8.696;2023-07-24T03:11:12;97868.94;;;18.33;100.00
22743;BME280;11538;48.884;8.696;2023-07-24T03:13:40;97879.25;;;18.09;100.00
22743;BME280;11538;48.884;8.696;2023-07-24T03:16:07;97883.84;;;18.02;100.00
22743;BME280;11538;48.884;8.696;2023-07-24T03:18:34;97885.34;;;17.99;100.00
22743;BME280;11538;48.884;8.696;2023-07-24T03:21:02;97877.59;;;18.05;100.00
22743;BME280;11538;48.884;8.696;2023-07-24T03:23:30;97869.38;;;18.05;100.00
22743;BME280;11538;48.884;8.696;2023-07-24T03:25:57;97878.63;;;17.96;100.00
22743;BME280;11538;48.884;8.696;2023-07-24T03:28:23;97873.25;;;18.00;100.00
22743;BME280;11538;48.884;8.696;2023-07-24T03:30:51;97870.94;;;18.06;100.00
22743;BME280;11538;48.884;8.696;2023-07-24T03:33:18;97875.75;;;18.12;100.00
22743;BME280;11538;48.884;8.696;2023-07-24T03:35:45;97878.72;;;18.00;100.00
22743;BME280;11538;48.884;8.696;2023-07-24T03:38:11;97880.22;;;17.97;100.00
22743;BME280;11538;48.884;8.696;2023-07-24T03:40:38;97876.75;;;18.01;100.00
22743;BME280;11538;48.884;8.696;2023-07-24T03:43:05;97876.81;;;18.04;100.00
22743;BME280;11538;48.884;8.696;2023-07-24T03:45:32;97888.56;;;18.05;100.00
22743;BME280;11538;48.884;8.696;2023-07-24T03:47:59;97887.09;;;18.11;100.00
22743;BME280;11538;48.884;8.696;2023-07-24T03:50:26;97889.88;;;18.15;100.00
22743;BME280;11538;48.884;8.696;2023-07-24T03:52:52;97898.47;;;18.13;100.00
22743;BME280;11538;48.884;8.696;2023-07-24T03:55:19;97889.72;;;18.00;100.00
22743;BME280;11538;48.884;8.696;2023-07-24T03:57:46;97897.72;;;18.16;100.00
22743;BME280;11538;48.884;8.696;2023-07-24T04:00:13;97892.34;;;18.23;100.00
22743;BME280;11538;48.884;8.696;2023-07-24T04:02:42;97879.41;;;18.24;100.00
22743;BME280;11538;48.884;8.696;2023-07-24T04:05:09;97886.16;;;18.30;100.00
22743;BME280;11538;48.884;8.696;2023-07-24T04:07:35;97886.25;;;18.37;100.00
22743;BME280;11538;48.884;8.696;2023-07-24T04:10:04;97891.41;;;18.42;100.00
22743;BME280;11538;48.884;8.696;2023-07-24T04:12:31;97878.44;;;18.43;100.00
22743;BME280;11538;48.884;8.696;2023-07-24T04:14:58;97862.78;;;18.44;100.00
22743;BME280;11538;48.884;8.696;2023-07-24T04:17:25;97848.22;;;18.39;100.00
22743;BME280;11538;48.884;8.696;2023-07-24T04:19:51;97848.25;;;18.43;100.00
22743;BME280;11538;48.884;8.696;2023-07-24T04:22:18;97852.56;;;18.40;100.00
22743;BME280;11538;48.884;8.696;2023-07-24T04:24:45;97846.66;;;18.42;100.00
22743;BME280;11538;48.884;8.696;2023-07-24T04:27:12;97852.16;;;18.42;100.00
22743;BME280;11538;48.884;8.696;2023-07-24T04:29:39;97836.69;;;18.26;100.00
22743;BME280;11538;48.884;8.696;2023-07-24T04:32:06;97836.28;;;18.24;100.00
22743;BME280;11538;48.884;8.696;2023-07-24T04:34:33;97842.09;;;18.19;100.00
22743;BME280;11538;48.884;8.696;2023-07-24T04:37:00;97842.50;;;18.21;100.00
22743;BME280;11538;48.884;8.696;2023-07-24T04:39:27;97832.38;;;18.25;100.00
22743;BME280;11538;48.884;8.696;2023-07-24T04:41:54;97836.44;;;18.39;100.00
22743;BME280;11538;48.884;8.696;2023-07-24T04:44:21;97827.53;;;18.49;100.00
22743;BME280;11538;48.884;8.696;2023-07-24T04:46:47;97830.69;;;18.51;100.00
22743;BME280;11538;48.884;8.696;2023-07-24T04:49:14;97819.38;;;18.56;100.00
22743;BME280;11538;48.884;8.696;2023-07-24T04:51:41;97830.03;;;18.62;100.00
22743;BME280;11538;48.884;8.696;2023-07-24T04:54:08;97835.88;;;18.60;100.00
22743;BME280;11538;48.884;8.696;2023-07-24T04:56:35;97822.91;;;18.57;100.00
22743;BME280;11538;48.884;8.696;2023-07-24T04:59:03;97815.06;;;18.55;100.00
22743;BME280;11538;48.884;8.696;2023-07-24T05:01:29;97809.56;;;18.55;100.00
22743;BME280;11538;48.884;8.696;2023-07-24T05:03:56;97817.38;;;18.53;100.00
22743;BME280;11538;48.884;8.696;2023-07-24T05:06:23;97824.88;;;18.56;100.00
22743;BME280;11538;48.884;8.696;2023-07-24T05:08:52;97818.28;;;18.65;100.00
22743;BME280;11538;48.884;8.696;2023-07-24T05:11:19;97826.19;;;18.70;100.00
22743;BME280;11538;48.884;8.696;2023-07-24T05:13:45;97834.84;;;18.72;100.00
22743;BME280;11538;48.884;8.696;2023-07-24T05:16:13;97830.84;;;18.66;100.00
22743;BME280;11538;48.884;8.696;2023-07-24T05:18:41;97833.84;;;18.53;100.00
22743;BME280;11538;48.884;8.696;2023-07-24T05:21:07;97833.91;;;18.57;100.00
22743;BME280;11538;48.884;8.696;2023-07-24T05:23:35;97839.44;;;18.61;100.00
22743;BME280;11538;48.884;8.696;2023-07-24T05:26:03;97837.84;;;18.60;100.00
22743;BME280;11538;48.884;8.696;2023-07-24T05:28:31;97837.44;;;18.58;100.00
22743;BME280;11538;48.884;8.696;2023-07-24T05:31:02;97840.09;;;18.50;100.00
22743;BME280;11538;48.884;8.696;2023-07-24T05:33:31;97833.94;;;18.61;100.00
22743;BME280;11538;48.884;8.696;2023-07-24T05:36:03;97828.44;;;18.61;100.00
22743;BME280;11538;48.884;8.696;2023-07-24T05:38:30;97823.38;;;18.63;100.00
22743;BME280;11538;48.884;8.696;2023-07-24T05:40:58;97839.50;;;18.68;100.00
22743;BME280;11538;48.884;8.696;2023-07-24T05:43:26;97845.00;;;18.68;100.00
22743;BME280;11538;48.884;8.696;2023-07-24T05:45:54;97848.59;;;18.76;100.00
22743;BME280;11538;48.884;8.696;2023-07-24T05:48:22;97850.56;;;18.75;100.00
22743;BME280;11538;48.884;8.696;2023-07-24T05:50:49;97862.72;;;18.74;100.00
22743;BME280;11538;48.884;8.696;2023-07-24T05:53:16;97870.22;;;18.81;100.00
22743;BME280;11538;48.884;8.696;2023-07-24T05:55:44;97858.13;;;18.85;100.00
22743;BME280;11538;48.884;8.696;2023-07-24T05:58:11;97861.38;;;18.98;100.00
22743;BME280;11538;48.884;8.696;2023-07-24T06:00:38;97866.13;;;19.02;100.00
22743;BME280;11538;48.884;8.696;2023-07-24T06:03:05;97863.44;;;19.09;100.00
22743;BME280;11538;48.884;8.696;2023-07-24T06:05:34;97859.97;;;19.16;100.00
22743;BME280;11538;48.884;8.696;2023-07-24T06:08:01;97854.53;;;19.23;100.00
22743;BME280;11538;48.884;8.696;2023-07-24T06:10:28;97851.84;;;19.30;100.00
22743;BME280;11538;48.884;8.696;2023-07-24T06:12:55;97854.66;;;19.37;100.00
22743;BME280;11538;48.884;8.696;2023-07-24T06:15:22;97857.44;;;19.41;100.00
22743;BME280;11538;48.884;8.696;2023-07-24T06:17:49;97857.84;;;19.43;100.00
22743;BME280;11538;48.884;8.696;2023-07-24T06:20:20;97851.94;;;19.44;100.00
22743;BME280;11538;48.884;8.696;2023-07-24T06:22:47;97863.66;;;19.34;100.00
22743;BME280;11538;48.884;8.696;2023-07-24T06:25:14;97858.09;;;19.27;100.00
22743;BME280;11538;48.884;8.696;2023-07-24T06:27:40;97854.22;;;19.35;100.00
22743;BME280;11538;48.884;8.696;2023-07-24T06:30:07;97849.16;;;19.37;100.00
22743;BME280;11538;48.884;8.696;2023-07-24T06:32:42;97850.25;;;19.29;100.00
22743;BME280;11538;48.884;8.696;2023-07-24T06:35:10;97845.16;;;19.27;100.00
22743;BME280;11538;48.884;8.696;2023-07-24T06:37:36;97840.84;;;19.30;100.00
22743;BME280;11538;48.884;8.696;2023-07-24T06:40:04;97838.59;;;19.43;100.00
22743;BME280;11538;48.884;8.696;2023-07-24T06:42:31;97843.78;;;19.55;100.00
22743;BME280;11538;48.884;8.696;2023-07-24T06:44:58;97834.03;;;19.72;100.00
22743;BME280;11538;48.884;8.696;2023-07-24T06:47:25;97817.56;;;19.80;100.00
22743;BME280;11538;48.884;8.696;2023-07-24T06:49:52;97827.91;;;19.90;100.00
22743;BME280;11538;48.884;8.696;2023-07-24T06:52:19;97827.13;;;19.97;100.00
22743;BME280;11538;48.884;8.696;2023-07-24T06:54:45;97834.22;;;20.01;100.00
22743;BME280;11538;48.884;8.696;2023-07-24T06:57:12;97832.69;;;20.08;100.00
22743;BME280;11538;48.884;8.696;2023-07-24T06:59:39;97827.16;;;20.04;100.00
22743;BME280;11538;48.884;8.696;2023-07-24T07:02:06;97827.19;;;20.08;100.00
22743;BME280;11538;48.884;8.696;2023-07-24T07:04:33;97824.81;;;20.13;100.00
22743;BME280;11538;48.884;8.696;2023-07-24T07:07:00;97829.16;;;20.11;100.00
22743;BME280;11538;48.884;8.696;2023-07-24T07:09:26;97829.97;;;20.15;100.00
22743;BME280;11538;48.884;8.696;2023-07-24T07:11:53;97833.16;;;20.35;100.00
22743;BME280;11538;48.884;8.696;2023-07-24T07:14:20;97834.34;;;20.41;100.00
22743;BME280;11538;48.884;8.696;2023-07-24T07:16:47;97826.91;;;20.42;100.00
22743;BME280;11538;48.884;8.696;2023-07-24T07:19:15;97827.66;;;20.42;100.00
22743;BME280;11538;48.884;8.696;2023-07-24T07:21:42;97826.47;;;20.36;100.00
22743;BME280;11538;48.884;8.696;2023-07-24T07:24:09;97843.00;;;20.43;100.00
22743;BME280;11538;48.884;8.696;2023-07-24T07:26:36;97859.16;;;20.45;100.00
22743;BME280;11538;48.884;8.696;2023-07-24T07:29:03;97875.25;;;20.39;100.00
22743;BME280;11538;48.884;8.696;2023-07-24T07:31:30;97880.03;;;20.46;100.00
22743;BME280;11538;48.884;8.696;2023-07-24T07:33:56;97885.19;;;20.58;100.00
22743;BME280;11538;48.884;8.696;2023-07-24T07:36:23;97886.75;;;20.56;100.00
22743;BME280;11538;48.884;8.696;2023-07-24T07:38:50;97883.56;;;20.54;100.00
22743;BME280;11538;48.884;8.696;2023-07-24T07:41:17;97884.75;;;20.53;100.00
22743;BME280;11538;48.884;8.696;2023-07-24T07:43:44;97893.84;;;20.60;100.00
22743;BME280;11538;48.884;8.696;2023-07-24T07:46:11;97894.25;;;20.59;100.00
22743;BME280;11538;48.884;8.696;2023-07-24T07:48:38;97907.22;;;20.58;100.00
22743;BME280;11538;48.884;8.696;2023-07-24T07:51:05;97908.75;;;20.52;100.00
22743;BME280;11538;48.884;8.696;2023-07-24T07:53:32;97919.75;;;20.45;100.00
22743;BME280;11538;48.884;8.696;2023-07-24T07:55:59;97908.34;;;20.43;100.00
22743;BME280;11538;48.884;8.696;2023-07-24T07:58:28;97919.72;;;20.38;100.00
22743;BME280;11538;48.884;8.696;2023-07-24T08:00:55;97913.41;;;20.34;100.00
22743;BME280;11538;48.884;8.696;2023-07-24T08:03:22;97913.81;;;20.36;100.00
22743;BME280;11538;48.884;8.696;2023-07-24T08:05:49;97909.84;;;20.22;100.00
22743;BME280;11538;48.884;8.696;2023-07-24T08:08:16;97902.75;;;20.25;100.00
22743;BME280;11538;48.884;8.696;2023-07-24T08:10:43;97890.97;;;20.24;100.00
22743;BME280;11538;48.884;8.696;2023-07-24T08:13:10;97888.59;;;20.26;100.00
22743;BME280;11538;48.884;8.696;2023-07-24T08:15:37;97878.41;;;20.30;100.00
22743;BME280;11538;48.884;8.696;2023-07-24T08:18:04;97860.72;;;20.42;100.00
22743;BME280;11538;48.884;8.696;2023-07-24T08:20:35;97852.88;;;20.48;100.00
22743;BME280;11538;48.884;8.696;2023-07-24T08:23:02;97841.47;;;20.53;100.00
22743;BME280;11538;48.884;8.696;2023-07-24T08:25:29;97829.31;;;20.58;100.00
22743;BME280;11538;48.884;8.696;2023-07-24T08:27:56;97822.63;;;20.66;100.00
22743;BME280;11538;48.884;8.696;2023-07-24T08:30:35;97810.03;;;20.72;100.00
22743;BME280;11538;48.884;8.696;2023-07-24T08:33:02;97802.94;;;20.75;100.00
22743;BME280;11538;48.884;8.696;2023-07-24T08:35:29;97806.53;;;20.83;100.00
22743;BME280;11538;48.884;8.696;2023-07-24T08:37:56;97801.00;;;20.86;100.00
22743;BME280;11538;48.884;8.696;2023-07-24T08:40:23;97808.50;;;20.89;100.00
22743;BME280;11538;48.884;8.696;2023-07-24T08:42:49;97811.66;;;20.95;100.00
22743;BME280;11538;48.884;8.696;2023-07-24T08:45:18;97822.28;;;21.00;100.00
22743;BME280;11538;48.884;8.696;2023-07-24T08:47:45;97826.22;;;21.07;100.00
22743;BME280;11538;48.884;8.696;2023-07-24T08:50:12;97841.19;;;21.09;100.00
22743;BME280;11538;48.884;8.696;2023-07-24T08:52:40;97838.44;;;21.13;100.00
22743;BME280;11538;48.884;8.696;2023-07-24T08:55:08;97850.63;;;21.08;100.00
22743;BME280;11538;48.884;8.696;2023-07-24T08:57:35;97852.22;;;21.16;100.00
22743;BME280;11538;48.884;8.696;2023-07-24T09:00:03;97850.25;;;21.28;100.00
22743;BME280;11538;48.884;8.696;2023-07-24T09:02:33;97834.88;;;21.38;100.00
22743;BME280;11538;48.884;8.696;2023-07-24T09:05:00;97830.94;;;21.50;100.00
22743;BME280;11538;48.884;8.696;2023-07-24T09:07:29;97836.81;;;21.59;100.00
22743;BME280;11538;48.884;8.696;2023-07-24T09:09:57;97836.03;;;21.62;100.00
22743;BME280;11538;48.884;8.696;2023-07-24T09:12:24;97840.34;;;21.74;100.00
22743;BME280;11538;48.884;8.696;2023-07-24T09:15:02;97841.09;;;21.85;100.00
22743;BME280;11538;48.884;8.696;2023-07-24T09:17:29;97846.19;;;22.01;100.00
22743;BME280;11538;48.884;8.696;2023-07-24T09:19:57;97837.84;;;22.16;100.00
22743;BME280;11538;48.884;8.696;2023-07-24T09:22:24;97844.53;;;22.26;100.00
22743;BME280;11538;48.884;8.696;2023-07-24T09:24:55;97837.00;;;22.30;100.00
22743;BME280;11538;48.884;8.696;2023-07-24T09:27:27;97848.41;;;22.35;100.00
22743;BME280;11538;48.884;8.696;2023-07-24T09:29:57;97847.59;;;22.46;100.00
22743;BME280;11538;48.884;8.696;2023-07-24T09:32:26;97846.41;;;22.47;100.00
22743;BME280;11538;48.884;8.696;2023-07-24T09:34:53;97836.94;;;22.44;100.00
22743;BME280;11538;48.884;8.696;2023-07-24T09:37:27;97841.28;;;22.42;100.00
22743;BME280;11538;48.884;8.696;2023-07-24T09:39:54;97838.59;;;22.31;100.00
22743;BME280;11538;48.884;8.696;2023-07-24T09:42:34;97848.47;;;22.25;100.00
22743;BME280;11538;48.884;8.696;2023-07-24T09:45:02;97865.44;;;22.23;100.00
22743;BME280;11538;48.884;8.696;2023-07-24T09:47:30;97856.38;;;22.23;100.00
22743;BME280;11538;48.884;8.696;2023-07-24T09:50:17;97861.53;;;22.20;100.00
22743;BME280;11538;48.884;8.696;2023-07-24T09:52:47;97871.38;;;22.18;100.00
22743;BME280;11538;48.884;8.696;2023-07-24T09:55:29;97859.59;;;22.10;100.00
22743;BME280;11538;48.884;8.696;2023-07-24T09:57:58;97856.44;;;22.08;100.00
22743;BME280;11538;48.884;8.696;2023-07-24T10:00:25;97861.16;;;22.08;100.00
22743;BME280;11538;48.884;8.696;2023-07-24T10:02:52;97874.16;;;22.11;100.00
22743;BME280;11538;48.884;8.696;2023-07-24T10:05:20;97880.88;;;22.10;100.00
22743;BME280;11538;48.884;8.696;2023-07-24T10:07:47;97878.53;;;22.08;100.00
22743;BME280;11538;48.884;8.696;2023-07-24T10:10:14;97880.50;;;22.08;100.00
22743;BME280;11538;48.884;8.696;2023-07-24T10:12:41;97882.09;;;22.05;100.00
22743;BME280;11538;48.884;8.696;2023-07-24T10:15:09;97879.72;;;22.03;100.00
22743;BME280;11538;48.884;8.696;2023-07-24T10:17:37;97884.06;;;22.01;100.00
22743;BME280;11538;48.884;8.696;2023-07-24T10:20:10;97878.97;;;21.96;100.00
22743;BME280;11538;48.884;8.696;2023-07-24T10:22:41;97871.47;;;21.93;100.00
22743;BME280;11538;48.884;8.696;2023-07-24T10:25:09;97873.03;;;21.86;100.00
22743;BME280;11538;48.884;8.696;2023-07-24T10:27:44;97871.50;;;21.74;100.00
22743;BME280;11538;48.884;8.696;2023-07-24T10:30:13;97869.53;;;21.68;100.00
22743;BME280;11538;48.884;8.696;2023-07-24T10:36:04;97872.31;;;21.31;100.00
22743;BME280;11538;48.884;8.696;2023-07-24T10:38:36;97888.06;;;21.16;100.00
22743;BME280;11538;48.884;8.696;2023-07-24T10:41:07;97876.22;;;21.05;100.00
22743;BME280;11538;48.884;8.696;2023-07-24T10:46:11;97860.84;;;20.89;100.00
22743;BME280;11538;48.884;8.696;2023-07-24T10:48:43;97856.53;;;20.81;100.00
22743;BME280;11538;48.884;8.696;2023-07-24T10:51:12;97851.81;;;20.89;100.00
22743;BME280;11538;48.884;8.696;2023-07-24T10:53:44;97834.50;;;20.92;100.00
22743;BME280;11538;48.884;8.696;2023-07-24T10:56:11;97832.91;;;20.87;100.00
22743;BME280;11538;48.884;8.696;2023-07-24T10:58:39;97827.78;;;20.97;100.00
22743;BME280;11538;48.884;8.696;2023-07-24T11:01:06;97819.53;;;20.97;100.00
22743;BME280;11538;48.884;8.696;2023-07-24T11:03:39;97816.78;;;21.00;100.00
22743;BME280;11538;48.884;8.696;2023-07-24T11:06:13;97810.84;;;21.02;100.00
22743;BME280;11538;48.884;8.696;2023-07-24T11:08:41;97815.19;;;21.03;100.00
22743;BME280;11538;48.884;8.696;2023-07-24T11:11:08;97816.38;;;21.02;100.00
22743;BME280;11538;48.884;8.696;2023-07-24T11:13:37;97810.47;;;21.00;100.00
22743;BME280;11538;48.884;8.696;2023-07-24T11:16:06;97789.59;;;21.02;100.00
22743;BME280;11538;48.884;8.696;2023-07-24T11:18:44;97758.88;;;21.04;100.00
22743;BME280;11538;48.884;8.696;2023-07-24T11:21:19;97738.00;;;21.03;100.00
22743;BME280;11538;48.884;8.696;2023-07-24T11:23:48;97709.28;;;21.00;100.00
22743;BME280;11538;48.884;8.696;2023-07-24T11:26:20;97718.72;;;20.99;100.00
22743;BME280;11538;48.884;8.696;2023-07-24T11:28:51;97737.59;;;21.08;100.00
22743;BME280;11538;48.884;8.696;2023-07-24T11:31:19;97759.28;;;21.21;100.00
22743;BME280;11538;48.884;8.696;2023-07-24T11:33:50;97759.63;;;21.37;100.00
22743;BME280;11538;48.884;8.696;2023-07-24T11:36:18;97761.94;;;21.64;100.00
22743;BME280;11538;48.884;8.696;2023-07-24T11:38:46;97765.44;;;21.75;100.00
22743;BME280;11538;48.884;8.696;2023-07-24T11:41:16;97776.09;;;21.81;100.00
22743;BME280;11538;48.884;8.696;2023-07-24T11:43:47;97772.94;;;21.79;100.00
22743;BME280;11538;48.884;8.696;2023-07-24T11:46:25;97788.75;;;21.67;100.00
22743;BME280;11538;48.884;8.696;2023-07-24T11:48:53;97775.34;;;21.66;100.00
22743;BME280;11538;48.884;8.696;2023-07-24T11:51:23;97780.84;;;21.62;98.57
22743;BME280;11538;48.884;8.696;2023-07-24T11:53:51;97785.97;;;21.56;97.27
22743;BME280;11538;48.884;8.696;2023-07-24T11:56:19;97799.41;;;21.51;94.03
22743;BME280;11538;48.884;8.696;2023-07-24T11:58:46;97802.16;;;21.47;94.90
22743;BME280;11538;48.884;8.696;2023-07-24T12:01:13;97818.31;;;21.48;94.54
22743;BME280;11538;48.884;8.696;2023-07-24T12:03:40;97808.47;;;21.37;93.25
22743;BME280;11538;48.884;8.696;2023-07-24T12:06:15;97812.44;;;21.32;95.20
22743;BME280;11538;48.884;8.696;2023-07-24T12:08:44;97804.56;;;21.34;95.91
22743;BME280;11538;48.884;8.696;2023-07-24T12:11:24;97818.75;;;21.29;96.76
22743;BME280;11538;48.884;8.696;2023-07-24T12:13:51;97818.75;;;21.22;97.59
22743;BME280;11538;48.884;8.696;2023-07-24T12:16:20;97826.63;;;21.16;98.23
22743;BME280;11538;48.884;8.696;2023-07-24T12:18:47;97827.41;;;21.09;98.75
22743;BME280;11538;48.884;8.696;2023-07-24T12:21:13;97819.91;;;21.06;99.02
22743;BME280;11538;48.884;8.696;2023-07-24T12:23:41;97821.50;;;20.96;99.53
22743;BME280;11538;48.884;8.696;2023-07-24T12:26:08;97824.25;;;20.96;98.53
22743;BME280;11538;48.884;8.696;2023-07-24T12:28:35;97811.66;;;20.99;97.64
22743;BME280;11538;48.884;8.696;2023-07-24T12:31:02;97793.53;;;21.01;96.76
22743;BME280;11538;48.884;8.696;2023-07-24T12:33:29;97798.25;;;21.01;94.43
22743;BME280;11538;48.884;8.696;2023-07-24T12:35:56;97801.81;;;20.98;93.71
22743;BME280;11538;48.884;8.696;2023-07-24T12:38:23;97796.28;;;20.91;93.86
22743;BME280;11538;48.884;8.696;2023-07-24T12:40:49;97804.56;;;20.87;94.79
22743;BME280;11538;48.884;8.696;2023-07-24T12:43:19;97787.22;;;20.86;96.15
22743;BME280;11538;48.884;8.696;2023-07-24T12:45:46;97793.53;;;20.91;95.82
22743;BME280;11538;48.884;8.696;2023-07-24T12:48:13;97773.84;;;20.96;96.52
22743;BME280;11538;48.884;8.696;2023-07-24T12:50:39;97772.66;;;20.97;95.15
22743;BME280;11538;48.884;8.696;2023-07-24T12:53:06;97771.09;;;20.96;95.00
22743;BME280;11538;48.884;8.696;2023-07-24T12:55:39;97777.41;;;20.96;94.65
22743;BME280;11538;48.884;8.696;2023-07-24T12:58:06;97787.25;;;20.97;94.40
22743;BME280;11538;48.884;8.696;2023-07-24T13:00:33;97765.97;;;21.05;94.22
22743;BME280;11538;48.884;8.696;2023-07-24T13:03:00;97773.44;;;21.19;94.49